sensor_id;sensor_type;location;lat;lon;timestamp;P1;durP1;ratioP1;P2;durP2;ratioP2
61527;SDS011;47395;42.032;-8.634;2023-07-28T00:00:46;4.50;;;2.92;;
61527;SDS011;47395;42.032;-8.634;2023-07-28T00:02:48;6.00;;;3.05;;
61527;SDS011;47395;42.032;-8.634;2023-07-28T00:04:49;8.85;;;3.00;;
61527;SDS011;47395;42.032;-8.634;2023-07-28T00:06:51;5.00;;;2.90;;
61527;SDS011;47395;42.032;-8.634;2023-07-28T00:08:54;6.30;;;3.00;;
61527;SDS011;47395;42.032;-8.634;2023-07-28T00:10:57;5.45;;;2.95;;
61527;SDS011;47395;42.032;-8.634;2023-07-28T00:12:58;11.90;;;2.92;;
61527;SDS011;47395;42.032;-8.634;2023-07-28T00:15:00;4.20;;;2.60;;
61527;SDS011;47395;42.032;-8.634;2023-07-28T00:17:00;5.35;;;3.10;;
61527;SDS011;47395;42.032;-8.634;2023-07-28T00:19:02;6.93;;;2.95;;
61527;SDS011;47395;42.032;-8.634;2023-07-28T00:21:05;4.60;;;2.45;;
61527;SDS011;47395;42.032;-8.634;2023-07-28T00:23:06;8.52;;;2.92;;
61527;SDS011;47395;42.032;-8.634;2023-07-28T00:25:07;5.50;;;2.55;;
61527;SDS011;47395;42.032;-8.634;2023-07-28T00:27:08;2.97;;;2.65;;
61527;SDS011;47395;42.032;-8.634;2023-07-28T00:29:10;5.78;;;3.05;;
61527;SDS011;47395;42.032;-8.634;2023-07-28T00:31:11;5.72;;;2.50;;
61527;SDS011;47395;42.032;-8.634;2023-07-28T00:33:12;5.95;;;3.00;;
61527;SDS011;47395;42.032;-8.634;2023-07-28T00:35:12;3.25;;;2.70;;
61527;SDS011;47395;42.032;-8.634;2023-07-28T00:37:13;5.68;;;2.97;;
61527;SDS011;47395;42.032;-8.634;2023-07-28T00:39:15;3.63;;;2.95;;
61527;SDS011;47395;42.032;-8.634;2023-07-28T00:41:15;5.10;;;2.83;;
61527;SDS011;47395;42.032;-8.634;2023-07-28T00:43:16;6.47;;;2.80;;
61527;SDS011;47395;42.032;-8.634;2023-07-28T00:45:17;5.40;;;2.70;;
61527;SDS011;47395;42.032;-8.634;2023-07-28T00:47:20;4.25;;;2.70;;
61527;SDS011;47395;42.032;-8.634;2023-07-28T00:49:21;3.92;;;3.03;;
61527;SDS011;47395;42.032;-8.634;2023-07-28T00:51:22;8.70;;;3.22;;
61527;SDS011;47395;42.032;-8.634;2023-07-28T00:53:23;5.57;;;3.05;;
61527;SDS011;47395;42.032;-8.634;2023-07-28T00:55:24;6.22;;;3.60;;
61527;SDS011;47395;42.032;-8.634;2023-07-28T00:57:26;7.07;;;3.47;;
61527;SDS011;47395;42.032;-8.634;2023-07-28T00:59:28;7.47;;;3.80;;
61527;SDS011;47395;42.032;-8.634;2023-07-28T01:01:32;9.70;;;4.43;;
61527;SDS011;47395;42.032;-8.634;2023-07-28T01:03:33;8.15;;;3.65;;
61527;SDS011;47395;42.032;-8.634;2023-07-28T01:08:19;8.13;;;4.30;;
61527;SDS011;47395;42.032;-8.634;2023-07-28T01:10:55;11.15;;;3.63;;
61527;SDS011;47395;42.032;-8.634;2023-07-28T01:12:56;8.93;;;3.90;;
61527;SDS011;47395;42.032;-8.634;2023-07-28T01:14:57;7.95;;;3.63;;
61527;SDS011;47395;42.032;-8.634;2023-07-28T01:16:58;11.40;;;3.47;;
61527;SDS011;47395;42.032;-8.634;2023-07-28T01:18:59;5.38;;;3.58;;
61527;SDS011;47395;42.032;-8.634;2023-07-28T01:21:01;6.75;;;3.33;;
61527;SDS011;47395;42.032;-8.634;2023-07-28T01:26:03;7.05;;;3.75;;
61527;SDS011;47395;42.032;-8.634;2023-07-28T01:28:08;3.47;;;3.15;;
61527;SDS011;47395;42.032;-8.634;2023-07-28T01:30:11;9.25;;;3.53;;
61527;SDS011;47395;42.032;-8.634;2023-07-28T01:32:12;6.55;;;3.90;;
61527;SDS011;47395;42.032;-8.634;2023-07-28T01:34:14;5.57;;;3.95;;
61527;SDS011;47395;42.032;-8.634;2023-07-28T01:36:16;7.32;;;3.47;;
61527;SDS011;47395;42.032;-8.634;2023-07-28T01:38:17;6.88;;;3.10;;
61527;SDS011;47395;42.032;-8.634;2023-07-28T01:40:18;4.60;;;3.00;;
61527;SDS011;47395;42.032;-8.634;2023-07-28T01:42:19;3.95;;;2.78;;
61527;SDS011;47395;42.032;-8.634;2023-07-28T01:44:20;4.07;;;3.42;;
61527;SDS011;47395;42.032;-8.634;2023-07-28T01:46:21;6.78;;;2.85;;
61527;SDS011;47395;42.032;-8.634;2023-07-28T01:48:22;3.28;;;2.97;;
61527;SDS011;47395;42.032;-8.634;2023-07-28T01:50:23;4.90;;;3.03;;
61527;SDS011;47395;42.032;-8.634;2023-07-28T01:52:24;6.03;;;3.30;;
61527;SDS011;47395;42.032;-8.634;2023-07-28T01:54:25;4.38;;;3.13;;
61527;SDS011;47395;42.032;-8.634;2023-07-28T01:56:26;8.63;;;3.10;;
61527;SDS011;47395;42.032;-8.634;2023-07-28T01:58:27;3.67;;;2.90;;
61527;SDS011;47395;42.032;-8.634;2023-07-28T02:00:29;3.75;;;3.33;;
61527;SDS011;47395;42.032;-8.634;2023-07-28T02:02:30;3.53;;;3.22;;
61527;SDS011;47395;42.032;-8.634;2023-07-28T02:04:31;3.95;;;3.50;;
61527;SDS011;47395;42.032;-8.634;2023-07-28T02:06:32;3.92;;;3.28;;
61527;SDS011;47395;42.032;-8.634;2023-07-28T02:08:34;4.38;;;3.13;;
61527;SDS011;47395;42.032;-8.634;2023-07-28T02:10:35;3.95;;;2.80;;
61527;SDS011;47395;42.032;-8.634;2023-07-28T02:12:37;3.03;;;2.75;;
61527;SDS011;47395;42.032;-8.634;2023-07-28T02:14:39;5.03;;;3.20;;
61527;SDS011;47395;42.032;-8.634;2023-07-28T02:16:40;5.07;;;2.88;;
61527;SDS011;47395;42.032;-8.634;2023-07-28T02:18:40;3.25;;;2.97;;
61527;SDS011;47395;42.032;-8.634;2023-07-28T02:20:43;4.32;;;3.17;;
61527;SDS011;47395;42.032;-8.634;2023-07-28T02:22:43;9.70;;;4.03;;
61527;SDS011;47395;42.032;-8.634;2023-07-28T02:24:45;3.92;;;3.13;;
61527;SDS011;47395;42.032;-8.634;2023-07-28T02:26:46;6.53;;;3.20;;
61527;SDS011;47395;42.032;-8.634;2023-07-28T02:28:47;3.30;;;3.10;;
61527;SDS011;47395;42.032;-8.634;2023-07-28T02:30:49;7.65;;;4.05;;
61527;SDS011;47395;42.032;-8.634;2023-07-28T02:32:50;3.53;;;3.10;;
61527;SDS011;47395;42.032;-8.634;2023-07-28T02:34:51;4.20;;;3.08;;
61527;SDS011;47395;42.032;-8.634;2023-07-28T02:36:51;6.90;;;2.85;;
61527;SDS011;47395;42.032;-8.634;2023-07-28T02:38:53;3.55;;;3.22;;
61527;SDS011;47395;42.032;-8.634;2023-07-28T02:40:54;3.28;;;2.80;;
61527;SDS011;47395;42.032;-8.634;2023-07-28T02:42:55;8.77;;;3.42;;
61527;SDS011;47395;42.032;-8.634;2023-07-28T02:44:57;4.47;;;3.00;;
61527;SDS011;47395;42.032;-8.634;2023-07-28T02:46:59;7.80;;;3.00;;
61527;SDS011;47395;42.032;-8.634;2023-07-28T02:49:00;3.70;;;2.88;;
61527;SDS011;47395;42.032;-8.634;2023-07-28T02:51:03;3.30;;;3.00;;
61527;SDS011;47395;42.032;-8.634;2023-07-28T02:53:04;3.55;;;2.65;;
61527;SDS011;47395;42.032;-8.634;2023-07-28T02:55:05;3.90;;;2.70;;
61527;SDS011;47395;42.032;-8.634;2023-07-28T02:57:08;6.88;;;3.22;;
61527;SDS011;47395;42.032;-8.634;2023-07-28T02:59:10;6.65;;;3.25;;
61527;SDS011;47395;42.032;-8.634;2023-07-28T03:01:11;3.47;;;2.75;;
61527;SDS011;47395;42.032;-8.634;2023-07-28T03:03:12;6.35;;;3.20;;
61527;SDS011;47395;42.032;-8.634;2023-07-28T03:05:14;5.50;;;3.25;;
61527;SDS011;47395;42.032;-8.634;2023-07-28T03:07:28;4.95;;;2.97;;
61527;SDS011;47395;42.032;-8.634;2023-07-28T03:09:36;5.40;;;2.92;;
61527;SDS011;47395;42.032;-8.634;2023-07-28T03:11:36;5.47;;;2.83;;
61527;SDS011;47395;42.032;-8.634;2023-07-28T03:13:37;4.70;;;3.03;;
61527;SDS011;47395;42.032;-8.634;2023-07-28T03:15:39;5.60;;;3.50;;
61527;SDS011;47395;42.032;-8.634;2023-07-28T03:17:44;3.80;;;3.47;;
61527;SDS011;47395;42.032;-8.634;2023-07-28T03:19:46;3.60;;;3.30;;
61527;SDS011;47395;42.032;-8.634;2023-07-28T03:21:47;4.35;;;3.15;;
61527;SDS011;47395;42.032;-8.634;2023-07-28T03:23:48;6.30;;;3.20;;
61527;SDS011;47395;42.032;-8.634;2023-07-28T03:25:49;4.57;;;3.28;;
61527;SDS011;47395;42.032;-8.634;2023-07-28T03:27:49;3.45;;;3.25;;
61527;SDS011;47395;42.032;-8.634;2023-07-28T03:29:51;3.10;;;2.88;;
61527;SDS011;47395;42.032;-8.634;2023-07-28T03:31:54;2.97;;;2.78;;
61527;SDS011;47395;42.032;-8.634;2023-07-28T03:33:55;4.82;;;3.38;;
61527;SDS011;47395;42.032;-8.634;2023-07-28T03:35:57;7.05;;;3.65;;
61527;SDS011;47395;42.032;-8.634;2023-07-28T03:37:58;5.20;;;3.47;;
61527;SDS011;47395;42.032;-8.634;2023-07-28T03:40:01;3.67;;;3.30;;
61527;SDS011;47395;42.032;-8.634;2023-07-28T03:42:12;3.58;;;3.10;;
61527;SDS011;47395;42.032;-8.634;2023-07-28T03:44:13;10.32;;;3.28;;
61527;SDS011;47395;42.032;-8.634;2023-07-28T03:46:14;6.22;;;3.58;;
61527;SDS011;47395;42.032;-8.634;2023-07-28T03:48:15;4.40;;;3.22;;
61527;SDS011;47395;42.032;-8.634;2023-07-28T03:50:15;7.32;;;3.35;;
61527;SDS011;47395;42.032;-8.634;2023-07-28T03:52:16;3.53;;;2.95;;
61527;SDS011;47395;42.032;-8.634;2023-07-28T03:54:17;3.22;;;2.92;;
61527;SDS011;47395;42.032;-8.634;2023-07-28T03:56:18;3.78;;;3.08;;
61527;SDS011;47395;42.032;-8.634;2023-07-28T03:58:20;3.47;;;3.10;;
61527;SDS011;47395;42.032;-8.634;2023-07-28T04:00:20;6.22;;;2.97;;
61527;SDS011;47395;42.032;-8.634;2023-07-28T04:04:45;4.25;;;2.92;;
61527;SDS011;47395;42.032;-8.634;2023-07-28T04:06:46;4.53;;;3.17;;
61527;SDS011;47395;42.032;-8.634;2023-07-28T04:08:53;3.35;;;2.80;;
61527;SDS011;47395;42.032;-8.634;2023-07-28T04:10:53;6.93;;;3.50;;
61527;SDS011;47395;42.032;-8.634;2023-07-28T04:12:54;6.10;;;3.40;;
61527;SDS011;47395;42.032;-8.634;2023-07-28T04:14:55;4.60;;;3.03;;
61527;SDS011;47395;42.032;-8.634;2023-07-28T04:16:56;5.00;;;2.80;;
61527;SDS011;47395;42.032;-8.634;2023-07-28T04:18:57;7.32;;;3.00;;
61527;SDS011;47395;42.032;-8.634;2023-07-28T04:20:58;5.45;;;3.60;;
61527;SDS011;47395;42.032;-8.634;2023-07-28T04:22:59;4.22;;;3.10;;
61527;SDS011;47395;42.032;-8.634;2023-07-28T04:25:01;5.10;;;3.17;;
61527;SDS011;47395;42.032;-8.634;2023-07-28T04:27:04;10.15;;;3.67;;
61527;SDS011;47395;42.032;-8.634;2023-07-28T04:29:05;3.65;;;3.30;;
61527;SDS011;47395;42.032;-8.634;2023-07-28T04:31:06;4.10;;;3.47;;
61527;SDS011;47395;42.032;-8.634;2023-07-28T04:33:28;4.10;;;3.25;;
61527;SDS011;47395;42.032;-8.634;2023-07-28T04:35:29;7.20;;;3.30;;
61527;SDS011;47395;42.032;-8.634;2023-07-28T04:38:00;5.07;;;3.53;;
61527;SDS011;47395;42.032;-8.634;2023-07-28T04:40:27;6.78;;;3.13;;
61527;SDS011;47395;42.032;-8.634;2023-07-28T04:42:28;4.53;;;2.60;;
61527;SDS011;47395;42.032;-8.634;2023-07-28T04:44:29;4.63;;;2.83;;
61527;SDS011;47395;42.032;-8.634;2023-07-28T04:46:36;5.07;;;3.13;;
61527;SDS011;47395;42.032;-8.634;2023-07-28T04:48:42;6.63;;;3.15;;
61527;SDS011;47395;42.032;-8.634;2023-07-28T04:51:03;3.72;;;3.42;;
61527;SDS011;47395;42.032;-8.634;2023-07-28T04:53:42;5.07;;;3.40;;
61527;SDS011;47395;42.032;-8.634;2023-07-28T04:55:53;5.00;;;3.50;;
61527;SDS011;47395;42.032;-8.634;2023-07-28T04:57:55;5.80;;;3.10;;
61527;SDS011;47395;42.032;-8.634;2023-07-28T04:59:59;3.03;;;2.88;;
61527;SDS011;47395;42.032;-8.634;2023-07-28T05:02:00;4.20;;;2.72;;
61527;SDS011;47395;42.032;-8.634;2023-07-28T05:04:01;5.38;;;3.33;;
61527;SDS011;47395;42.032;-8.634;2023-07-28T05:06:03;5.05;;;3.00;;
61527;SDS011;47395;42.032;-8.634;2023-07-28T05:08:05;4.53;;;3.35;;
61527;SDS011;47395;42.032;-8.634;2023-07-28T05:10:06;4.57;;;3.35;;
61527;SDS011;47395;42.032;-8.634;2023-07-28T05:12:08;3.42;;;3.13;;
61527;SDS011;47395;42.032;-8.634;2023-07-28T05:14:16;5.10;;;3.55;;
61527;SDS011;47395;42.032;-8.634;2023-07-28T05:16:17;4.07;;;2.70;;
61527;SDS011;47395;42.032;-8.634;2023-07-28T05:18:36;3.38;;;3.08;;
61527;SDS011;47395;42.032;-8.634;2023-07-28T05:21:09;3.30;;;3.00;;
61527;SDS011;47395;42.032;-8.634;2023-07-28T05:23:10;5.30;;;2.97;;
61527;SDS011;47395;42.032;-8.634;2023-07-28T05:25:11;6.18;;;3.00;;
61527;SDS011;47395;42.032;-8.634;2023-07-28T05:27:15;4.00;;;2.90;;
61527;SDS011;47395;42.032;-8.634;2023-07-28T05:29:19;7.55;;;3.60;;
61527;SDS011;47395;42.032;-8.634;2023-07-28T05:31:21;4.70;;;3.38;;
61527;SDS011;47395;42.032;-8.634;2023-07-28T05:33:22;5.20;;;3.05;;
61527;SDS011;47395;42.032;-8.634;2023-07-28T05:35:24;5.43;;;3.22;;
61527;SDS011;47395;42.032;-8.634;2023-07-28T05:37:24;2.90;;;2.70;;
61527;SDS011;47395;42.032;-8.634;2023-07-28T05:39:25;4.15;;;3.15;;
61527;SDS011;47395;42.032;-8.634;2023-07-28T05:41:26;4.03;;;2.97;;
61527;SDS011;47395;42.032;-8.634;2023-07-28T05:43:27;4.82;;;3.40;;
61527;SDS011;47395;42.032;-8.634;2023-07-28T05:45:30;3.20;;;2.90;;
61527;SDS011;47395;42.032;-8.634;2023-07-28T05:47:31;3.15;;;2.92;;
61527;SDS011;47395;42.032;-8.634;2023-07-28T05:49:32;3.80;;;3.25;;
61527;SDS011;47395;42.032;-8.634;2023-07-28T05:51:32;4.38;;;2.95;;
61527;SDS011;47395;42.032;-8.634;2023-07-28T05:53:33;4.45;;;2.85;;
61527;SDS011;47395;42.032;-8.634;2023-07-28T05:55:39;3.85;;;3.33;;
61527;SDS011;47395;42.032;-8.634;2023-07-28T05:57:40;4.00;;;3.10;;
61527;SDS011;47395;42.032;-8.634;2023-07-28T05:59:43;4.75;;;3.08;;
61527;SDS011;47395;42.032;-8.634;2023-07-28T06:01:44;3.88;;;3.00;;
61527;SDS011;47395;42.032;-8.634;2023-07-28T06:04:11;3.28;;;2.95;;
61527;SDS011;47395;42.032;-8.634;2023-07-28T06:06:18;3.58;;;2.63;;
61527;SDS011;47395;42.032;-8.634;2023-07-28T06:08:19;5.05;;;3.17;;
61527;SDS011;47395;42.032;-8.634;2023-07-28T06:10:20;5.30;;;2.78;;
61527;SDS011;47395;42.032;-8.634;2023-07-28T06:12:21;5.15;;;3.10;;
61527;SDS011;47395;42.032;-8.634;2023-07-28T06:14:22;3.50;;;3.05;;
61527;SDS011;47395;42.032;-8.634;2023-07-28T06:16:23;4.45;;;3.38;;
61527;SDS011;47395;42.032;-8.634;2023-07-28T06:18:25;3.90;;;2.88;;
61527;SDS011;47395;42.032;-8.634;2023-07-28T06:20:41;6.80;;;3.33;;
61527;SDS011;47395;42.032;-8.634;2023-07-28T06:22:43;5.60;;;2.80;;
61527;SDS011;47395;42.032;-8.634;2023-07-28T06:24:44;4.95;;;2.88;;
61527;SDS011;47395;42.032;-8.634;2023-07-28T06:26:45;5.35;;;2.88;;
61527;SDS011;47395;42.032;-8.634;2023-07-28T06:28:46;5.57;;;3.00;;
61527;SDS011;47395;42.032;-8.634;2023-07-28T06:30:55;6.57;;;3.17;;
61527;SDS011;47395;42.032;-8.634;2023-07-28T06:32:57;4.97;;;2.92;;
61527;SDS011;47395;42.032;-8.634;2023-07-28T06:34:58;3.25;;;3.00;;
61527;SDS011;47395;42.032;-8.634;2023-07-28T06:36:59;5.55;;;2.95;;
61527;SDS011;47395;42.032;-8.634;2023-07-28T06:39:00;3.15;;;2.95;;
61527;SDS011;47395;42.032;-8.634;2023-07-28T06:41:01;2.92;;;2.70;;
61527;SDS011;47395;42.032;-8.634;2023-07-28T06:43:02;3.20;;;2.92;;
61527;SDS011;47395;42.032;-8.634;2023-07-28T06:45:03;4.90;;;3.15;;
61527;SDS011;47395;42.032;-8.634;2023-07-28T06:47:04;3.38;;;3.08;;
61527;SDS011;47395;42.032;-8.634;2023-07-28T06:49:06;4.78;;;3.00;;
61527;SDS011;47395;42.032;-8.634;2023-07-28T06:51:07;8.15;;;2.63;;
61527;SDS011;47395;42.032;-8.634;2023-07-28T06:53:08;3.55;;;2.50;;
61527;SDS011;47395;42.032;-8.634;2023-07-28T06:55:09;3.03;;;2.72;;
61527;SDS011;47395;42.032;-8.634;2023-07-28T06:57:10;3.90;;;3.15;;
61527;SDS011;47395;42.032;-8.634;2023-07-28T06:59:12;4.93;;;3.15;;
61527;SDS011;47395;42.032;-8.634;2023-07-28T07:01:13;3.30;;;2.83;;
61527;SDS011;47395;42.032;-8.634;2023-07-28T07:03:14;2.95;;;2.50;;
61527;SDS011;47395;42.032;-8.634;2023-07-28T07:05:15;5.78;;;2.85;;
61527;SDS011;47395;42.032;-8.634;2023-07-28T07:07:16;2.58;;;2.33;;
61527;SDS011;47395;42.032;-8.634;2023-07-28T07:09:17;5.07;;;3.03;;
61527;SDS011;47395;42.032;-8.634;2023-07-28T07:11:18;6.25;;;2.65;;
61527;SDS011;47395;42.032;-8.634;2023-07-28T07:13:19;2.47;;;2.30;;
61527;SDS011;47395;42.032;-8.634;2023-07-28T07:15:20;5.93;;;2.40;;
61527;SDS011;47395;42.032;-8.634;2023-07-28T07:17:20;3.40;;;2.25;;
61527;SDS011;47395;42.032;-8.634;2023-07-28T07:19:22;3.05;;;2.50;;
61527;SDS011;47395;42.032;-8.634;2023-07-28T07:21:22;6.88;;;2.42;;
61527;SDS011;47395;42.032;-8.634;2023-07-28T07:23:23;2.92;;;2.33;;
61527;SDS011;47395;42.032;-8.634;2023-07-28T07:25:24;2.85;;;2.03;;
61527;SDS011;47395;42.032;-8.634;2023-07-28T07:27:25;2.90;;;2.60;;
61527;SDS011;47395;42.032;-8.634;2023-07-28T07:29:26;2.60;;;2.40;;
61527;SDS011;47395;42.032;-8.634;2023-07-28T07:31:26;3.00;;;2.25;;
61527;SDS011;47395;42.032;-8.634;2023-07-28T07:33:27;4.20;;;2.28;;
61527;SDS011;47395;42.032;-8.634;2023-07-28T07:35:28;2.60;;;2.40;;
61527;SDS011;47395;42.032;-8.634;2023-07-28T07:37:29;2.30;;;2.10;;
61527;SDS011;47395;42.032;-8.634;2023-07-28T07:39:32;2.58;;;2.38;;
61527;SDS011;47395;42.032;-8.634;2023-07-28T07:41:34;3.22;;;2.50;;
61527;SDS011;47395;42.032;-8.634;2023-07-28T07:43:35;3.30;;;2.30;;
61527;SDS011;47395;42.032;-8.634;2023-07-28T07:45:36;2.38;;;2.22;;
61527;SDS011;47395;42.032;-8.634;2023-07-28T07:47:38;5.57;;;2.50;;
61527;SDS011;47395;42.032;-8.634;2023-07-28T07:49:43;4.22;;;2.50;;
61527;SDS011;47395;42.032;-8.634;2023-07-28T07:51:43;5.22;;;2.60;;
61527;SDS011;47395;42.032;-8.634;2023-07-28T07:53:44;3.30;;;2.50;;
61527;SDS011;47395;42.032;-8.634;2023-07-28T07:55:45;2.72;;;2.53;;
61527;SDS011;47395;42.032;-8.634;2023-07-28T07:57:46;5.25;;;2.53;;
61527;SDS011;47395;42.032;-8.634;2023-07-28T07:59:47;4.53;;;2.25;;
61527;SDS011;47395;42.032;-8.634;2023-07-28T08:01:48;2.85;;;2.70;;
61527;SDS011;47395;42.032;-8.634;2023-07-28T08:03:49;1.90;;;1.80;;
61527;SDS011;47395;42.032;-8.634;2023-07-28T08:05:50;5.30;;;2.67;;
61527;SDS011;47395;42.032;-8.634;2023-07-28T08:07:51;5.22;;;2.13;;
61527;SDS011;47395;42.032;-8.634;2023-07-28T08:09:53;6.63;;;2.40;;
61527;SDS011;47395;42.032;-8.634;2023-07-28T08:11:54;2.92;;;2.28;;
61527;SDS011;47395;42.032;-8.634;2023-07-28T08:13:55;2.55;;;2.30;;
61527;SDS011;47395;42.032;-8.634;2023-07-28T08:15:56;3.50;;;1.90;;
61527;SDS011;47395;42.032;-8.634;2023-07-28T08:17:57;3.15;;;2.20;;
61527;SDS011;47395;42.032;-8.634;2023-07-28T08:19:58;2.28;;;2.00;;
61527;SDS011;47395;42.032;-8.634;2023-07-28T08:21:59;2.67;;;2.45;;
61527;SDS011;47395;42.032;-8.634;2023-07-28T08:24:00;2.08;;;1.98;;
61527;SDS011;47395;42.032;-8.634;2023-07-28T08:26:01;3.58;;;2.22;;
61527;SDS011;47395;42.032;-8.634;2023-07-28T08:28:01;3.40;;;2.33;;
61527;SDS011;47395;42.032;-8.634;2023-07-28T08:30:03;2.03;;;1.90;;
61527;SDS011;47395;42.032;-8.634;2023-07-28T08:32:05;2.78;;;2.53;;
61527;SDS011;47395;42.032;-8.634;2023-07-28T08:34:07;3.33;;;2.13;;
61527;SDS011;47395;42.032;-8.634;2023-07-28T08:36:08;2.10;;;1.90;;
61527;SDS011;47395;42.032;-8.634;2023-07-28T08:38:09;1.85;;;1.73;;
61527;SDS011;47395;42.032;-8.634;2023-07-28T08:40:10;2.83;;;1.90;;
61527;SDS011;47395;42.032;-8.634;2023-07-28T08:42:12;3.70;;;1.65;;
61527;SDS011;47395;42.032;-8.634;2023-07-28T08:44:13;1.73;;;1.60;;
61527;SDS011;47395;42.032;-8.634;2023-07-28T08:46:14;2.55;;;1.95;;
61527;SDS011;47395;42.032;-8.634;2023-07-28T08:48:15;1.83;;;1.70;;
61527;SDS011;47395;42.032;-8.634;2023-07-28T08:50:15;1.80;;;1.70;;
61527;SDS011;47395;42.032;-8.634;2023-07-28T08:52:17;5.10;;;2.10;;
61527;SDS011;47395;42.032;-8.634;2023-07-28T08:54:19;2.65;;;2.00;;
61527;SDS011;47395;42.032;-8.634;2023-07-28T08:56:21;1.98;;;1.88;;
61527;SDS011;47395;42.032;-8.634;2023-07-28T08:58:22;1.92;;;1.63;;
61527;SDS011;47395;42.032;-8.634;2023-07-28T09:00:24;2.47;;;1.70;;
61527;SDS011;47395;42.032;-8.634;2023-07-28T09:02:25;3.92;;;1.55;;
61527;SDS011;47395;42.032;-8.634;2023-07-28T09:04:28;3.67;;;1.45;;
61527;SDS011;47395;42.032;-8.634;2023-07-28T09:06:28;3.33;;;1.83;;
61527;SDS011;47395;42.032;-8.634;2023-07-28T09:08:31;2.25;;;1.90;;
61527;SDS011;47395;42.032;-8.634;2023-07-28T09:10:42;5.07;;;1.77;;
61527;SDS011;47395;42.032;-8.634;2023-07-28T09:12:49;2.72;;;1.50;;
61527;SDS011;47395;42.032;-8.634;2023-07-28T09:14:55;2.38;;;1.95;;
61527;SDS011;47395;42.032;-8.634;2023-07-28T09:17:09;1.85;;;1.63;;
61527;SDS011;47395;42.032;-8.634;2023-07-28T09:19:11;1.80;;;1.70;;
61527;SDS011;47395;42.032;-8.634;2023-07-28T09:21:19;1.88;;;1.63;;
61527;SDS011;47395;42.032;-8.634;2023-07-28T09:23:27;2.45;;;1.85;;
61527;SDS011;47395;42.032;-8.634;2023-07-28T09:25:30;2.53;;;1.90;;
61527;SDS011;47395;42.032;-8.634;2023-07-28T09:27:31;1.73;;;1.63;;
61527;SDS011;47395;42.032;-8.634;2023-07-28T09:29:32;1.80;;;1.70;;
61527;SDS011;47395;42.032;-8.634;2023-07-28T09:31:32;2.20;;;1.73;;
61527;SDS011;47395;42.032;-8.634;2023-07-28T09:33:34;1.95;;;1.83;;
61527;SDS011;47395;42.032;-8.634;2023-07-28T09:35:36;1.95;;;1.52;;
61527;SDS011;47395;42.032;-8.634;2023-07-28T09:37:50;3.65;;;1.70;;
61527;SDS011;47395;42.032;-8.634;2023-07-28T09:39:52;2.10;;;1.52;;
61527;SDS011;47395;42.032;-8.634;2023-07-28T09:41:54;2.97;;;1.42;;
61527;SDS011;47395;42.032;-8.634;2023-07-28T09:43:58;4.32;;;1.60;;
61527;SDS011;47395;42.032;-8.634;2023-07-28T09:45:59;1.98;;;1.40;;
61527;SDS011;47395;42.032;-8.634;2023-07-28T09:48:05;1.95;;;1.67;;
61527;SDS011;47395;42.032;-8.634;2023-07-28T09:50:10;3.70;;;2.15;;
61527;SDS011;47395;42.032;-8.634;2023-07-28T09:52:13;3.60;;;1.40;;
61527;SDS011;47395;42.032;-8.634;2023-07-28T09:54:20;1.50;;;1.40;;
61527;SDS011;47395;42.032;-8.634;2023-07-28T09:56:28;2.08;;;1.42;;
61527;SDS011;47395;42.032;-8.634;2023-07-28T09:58:33;1.67;;;1.38;;
61527;SDS011;47395;42.032;-8.634;2023-07-28T10:00:38;1.30;;;1.30;;
61527;SDS011;47395;42.032;-8.634;2023-07-28T10:02:40;2.15;;;1.40;;
61527;SDS011;47395;42.032;-8.634;2023-07-28T10:04:41;1.58;;;1.48;;
61527;SDS011;47395;42.032;-8.634;2023-07-28T10:06:42;5.10;;;1.42;;
61527;SDS011;47395;42.032;-8.634;2023-07-28T10:08:44;1.63;;;1.48;;
61527;SDS011;47395;42.032;-8.634;2023-07-28T10:10:46;3.90;;;1.58;;
61527;SDS011;47395;42.032;-8.634;2023-07-28T10:12:50;2.60;;;1.42;;
61527;SDS011;47395;42.032;-8.634;2023-07-28T10:15:02;1.35;;;1.35;;
61527;SDS011;47395;42.032;-8.634;2023-07-28T10:17:04;5.22;;;2.20;;
61527;SDS011;47395;42.032;-8.634;2023-07-28T10:19:06;5.75;;;3.28;;
61527;SDS011;47395;42.032;-8.634;2023-07-28T10:21:15;9.13;;;5.15;;
61527;SDS011;47395;42.032;-8.634;2023-07-28T10:23:17;2.00;;;1.90;;
61527;SDS011;47395;42.032;-8.634;2023-07-28T10:25:25;2.00;;;1.90;;
61527;SDS011;47395;42.032;-8.634;2023-07-28T10:27:34;2.72;;;1.60;;
61527;SDS011;47395;42.032;-8.634;2023-07-28T10:29:36;3.00;;;1.92;;
61527;SDS011;47395;42.032;-8.634;2023-07-28T10:31:51;2.55;;;1.70;;
61527;SDS011;47395;42.032;-8.634;2023-07-28T10:33:53;1.90;;;1.80;;
61527;SDS011;47395;42.032;-8.634;2023-07-28T10:35:54;2.65;;;1.88;;
61527;SDS011;47395;42.032;-8.634;2023-07-28T10:37:55;2.28;;;2.10;;
61527;SDS011;47395;42.032;-8.634;2023-07-28T10:42:42;11.05;;;5.53;;
61527;SDS011;47395;42.032;-8.634;2023-07-28T10:44:43;14.07;;;7.32;;
61527;SDS011;47395;42.032;-8.634;2023-07-28T10:46:44;9.10;;;5.38;;
61527;SDS011;47395;42.032;-8.634;2023-07-28T10:48:46;2.55;;;2.35;;
61527;SDS011;47395;42.032;-8.634;2023-07-28T10:50:49;3.30;;;2.00;;
61527;SDS011;47395;42.032;-8.634;2023-07-28T10:52:50;2.20;;;2.00;;
61527;SDS011;47395;42.032;-8.634;2023-07-28T10:54:51;3.47;;;2.95;;
61527;SDS011;47395;42.032;-8.634;2023-07-28T10:56:52;4.70;;;2.38;;
61527;SDS011;47395;42.032;-8.634;2023-07-28T10:58:59;4.97;;;2.30;;
61527;SDS011;47395;42.032;-8.634;2023-07-28T11:01:01;2.80;;;2.53;;
61527;SDS011;47395;42.032;-8.634;2023-07-28T11:03:02;4.88;;;2.15;;
61527;SDS011;47395;42.032;-8.634;2023-07-28T11:05:09;3.30;;;2.25;;
61527;SDS011;47395;42.032;-8.634;2023-07-28T11:07:14;3.08;;;2.03;;
61527;SDS011;47395;42.032;-8.634;2023-07-28T11:09:16;6.32;;;2.33;;
61527;SDS011;47395;42.032;-8.634;2023-07-28T11:11:18;4.47;;;2.92;;
61527;SDS011;47395;42.032;-8.634;2023-07-28T11:13:20;6.20;;;3.08;;
61527;SDS011;47395;42.032;-8.634;2023-07-28T11:15:22;12.70;;;4.68;;
61527;SDS011;47395;42.032;-8.634;2023-07-28T11:17:23;12.10;;;3.78;;
61527;SDS011;47395;42.032;-8.634;2023-07-28T11:19:24;4.30;;;2.25;;
61527;SDS011;47395;42.032;-8.634;2023-07-28T11:21:25;2.03;;;1.92;;
61527;SDS011;47395;42.032;-8.634;2023-07-28T11:23:26;2.00;;;1.90;;
61527;SDS011;47395;42.032;-8.634;2023-07-28T11:25:29;3.80;;;2.03;;
61527;SDS011;47395;42.032;-8.634;2023-07-28T11:27:31;2.05;;;1.88;;
61527;SDS011;47395;42.032;-8.634;2023-07-28T11:29:32;1.90;;;1.80;;
61527;SDS011;47395;42.032;-8.634;2023-07-28T11:31:33;2.25;;;2.08;;
61527;SDS011;47395;42.032;-8.634;2023-07-28T11:33:35;6.32;;;1.80;;
61527;SDS011;47395;42.032;-8.634;2023-07-28T11:35:38;2.92;;;2.15;;
61527;SDS011;47395;42.032;-8.634;2023-07-28T11:37:43;2.55;;;2.33;;
61527;SDS011;47395;42.032;-8.634;2023-07-28T11:39:49;2.55;;;2.08;;
61527;SDS011;47395;42.032;-8.634;2023-07-28T11:41:51;2.72;;;2.28;;
61527;SDS011;47395;42.032;-8.634;2023-07-28T11:43:55;2.55;;;2.25;;
61527;SDS011;47395;42.032;-8.634;2023-07-28T11:45:56;2.40;;;2.20;;
61527;SDS011;47395;42.032;-8.634;2023-07-28T11:48:01;2.72;;;2.47;;
61527;SDS011;47395;42.032;-8.634;2023-07-28T11:50:04;4.30;;;2.08;;
61527;SDS011;47395;42.032;-8.634;2023-07-28T11:52:05;2.17;;;2.00;;
61527;SDS011;47395;42.032;-8.634;2023-07-28T11:54:07;2.97;;;2.30;;
61527;SDS011;47395;42.032;-8.634;2023-07-28T11:56:11;2.75;;;2.55;;
61527;SDS011;47395;42.032;-8.634;2023-07-28T11:58:12;2.33;;;2.05;;
61527;SDS011;47395;42.032;-8.634;2023-07-28T12:00:13;2.15;;;1.95;;
61527;SDS011;47395;42.032;-8.634;2023-07-28T12:02:23;2.45;;;2.25;;
61527;SDS011;47395;42.032;-8.634;2023-07-28T12:04:28;1.80;;;1.70;;
61527;SDS011;47395;42.032;-8.634;2023-07-28T12:06:31;2.42;;;2.22;;
61527;SDS011;47395;42.032;-8.634;2023-07-28T12:08:36;2.13;;;2.03;;
61527;SDS011;47395;42.032;-8.634;2023-07-28T12:10:50;1.98;;;1.88;;
61527;SDS011;47395;42.032;-8.634;2023-07-28T12:12:55;2.00;;;1.83;;
61527;SDS011;47395;42.032;-8.634;2023-07-28T12:14:56;2.30;;;2.20;;
61527;SDS011;47395;42.032;-8.634;2023-07-28T12:17:11;5.15;;;2.20;;
61527;SDS011;47395;42.032;-8.634;2023-07-28T12:19:12;5.05;;;2.08;;